createdAt,value
2019-01-06T00:00:02.046Z,3.77777777778
2019-01-06T00:00:14.417Z,3.77777777778
2019-01-06T00:00:26.815Z,3.77777777778
2019-01-06T00:00:39.280Z,3.77777777778
2019-01-06T00:00:51.615Z,3.77777777778
2019-01-06T00:01:03.965Z,3.77777777778
2019-01-06T00:01:16.311Z,3.77777777778
2019-01-06T00:01:28.655Z,3.77777777778
2019-01-06T00:01:41.073Z,3.77777777778
2019-01-06T00:01:53.425Z,3.77777777778
2019-01-06T00:02:05.990Z,3.77777777778
2019-01-06T00:02:18.330Z,3.77777777778
2019-01-06T00:02:30.665Z,3.77777777778
2019-01-06T00:02:43.015Z,3.77777777778
2019-01-06T00:02:55.358Z,3.77777777778
2019-01-06T00:03:07.693Z,3.77777777778
2019-01-06T00:03:20.040Z,3.77777777778
2019-01-06T00:03:34.159Z,3.77777777778
2019-01-06T00:03:46.522Z,3.77777777778
2019-01-06T00:03:58.862Z,3.77777777778
2019-01-06T00:04:11.214Z,3.77777777778
2019-01-06T00:04:23.585Z,3.77777777778
2019-01-06T00:04:35.950Z,3.77777777778
2019-01-06T00:04:48.295Z,3.83333333333
2019-01-06T00:05:00.653Z,3.83333333333
2019-01-06T00:05:13.040Z,3.83333333333
2019-01-06T00:05:25.412Z,3.83333333333
2019-01-06T00:05:37.774Z,3.77777777778
2019-01-06T00:05:50.189Z,3.83333333333
2019-01-06T00:06:02.766Z,3.77777777778
2019-01-06T00:06:15.112Z,3.83333333333
2019-01-06T00:06:27.466Z,3.77777777778
2019-01-06T00:06:39.806Z,3.77777777778
2019-01-06T00:06:52.238Z,3.83333333333
2019-01-06T00:07:04.590Z,3.77777777778
2019-01-06T00:07:16.926Z,3.83333333333
2019-01-06T00:07:29.355Z,3.77777777778
2019-01-06T00:07:41.708Z,3.77777777778
2019-01-06T00:07:54.051Z,3.77777777778
2019-01-06T00:08:06.382Z,3.83333333333
2019-01-06T00:08:18.798Z,3.77777777778
2019-01-06T00:08:31.236Z,3.77777777778
2019-01-06T00:08:43.583Z,3.77777777778
2019-01-06T00:08:55.912Z,3.77777777778
2019-01-06T00:09:08.531Z,3.77777777778
2019-01-06T00:09:20.876Z,3.77777777778
2019-01-06T00:09:33.360Z,3.83333333333
2019-01-06T00:09:45.705Z,3.77777777778
2019-01-06T00:09:58.053Z,3.77777777778
2019-01-06T00:10:10.458Z,3.77777777778
2019-01-06T00:10:22.798Z,3.83333333333
2019-01-06T00:10:35.152Z,3.77777777778
2019-01-06T00:10:47.510Z,3.77777777778
2019-01-06T00:10:59.847Z,3.77777777778
2019-01-06T00:11:12.341Z,3.77777777778
2019-01-06T00:11:24.889Z,3.77777777778
2019-01-06T00:11:37.302Z,3.83333333333
2019-01-06T00:11:49.727Z,3.77777777778
2019-01-06T00:12:04.137Z,3.77777777778
2019-01-06T00:12:16.491Z,3.77777777778
2019-01-06T00:12:28.850Z,3.77777777778
2019-01-06T00:12:41.199Z,3.77777777778
2019-01-06T00:12:53.558Z,3.77777777778
2019-01-06T00:13:05.922Z,3.77777777778
2019-01-06T00:13:18.298Z,3.77777777778
2019-01-06T00:13:30.659Z,3.77777777778
2019-01-06T00:13:43.014Z,3.77777777778
2019-01-06T00:13:55.395Z,3.77777777778
2019-01-06T00:14:07.765Z,3.77777777778
2019-01-06T00:14:20.120Z,3.77777777778
2019-01-06T00:14:32.465Z,3.77777777778
2019-01-06T00:14:44.799Z,3.77777777778
2019-01-06T00:14:57.234Z,3.77777777778
2019-01-06T00:15:09.588Z,3.77777777778
2019-01-06T00:15:21.930Z,3.77777777778
2019-01-06T00:15:34.264Z,3.77777777778
2019-01-06T00:15:46.617Z,3.77777777778
2019-01-06T00:15:59.029Z,3.77777777778
2019-01-06T00:16:11.379Z,3.77777777778
2019-01-06T00:16:23.723Z,3.77777777778
2019-01-06T00:16:36.104Z,3.77777777778
2019-01-06T00:16:48.444Z,3.72222222222
2019-01-06T00:17:00.815Z,3.77777777778
2019-01-06T00:17:13.158Z,3.77777777778
2019-01-06T00:17:25.561Z,3.77777777778
2019-01-06T00:17:37.907Z,3.72222222222
2019-01-06T00:17:50.254Z,3.77777777778
2019-01-06T00:18:02.610Z,3.77777777778
2019-01-06T00:18:15.172Z,3.77777777778
2019-01-06T00:18:27.525Z,3.77777777778
2019-01-06T00:18:40.035Z,3.77777777778
2019-01-06T00:18:52.411Z,3.77777777778
2019-01-06T00:19:04.768Z,3.72222222222
2019-01-06T00:19:17.127Z,3.72222222222
2019-01-06T00:19:29.470Z,3.72222222222
2019-01-06T00:19:41.828Z,3.72222222222
2019-01-06T00:19:54.173Z,3.72222222222
2019-01-06T00:20:06.522Z,3.72222222222
2019-01-06T00:20:18.915Z,3.72222222222
2019-01-06T00:20:31.262Z,3.72222222222
2019-01-06T00:20:43.616Z,3.72222222222
2019-01-06T00:20:55.943Z,3.72222222222
2019-01-06T00:21:08.307Z,3.72222222222
2019-01-06T00:21:20.664Z,3.72222222222
2019-01-06T00:21:32.995Z,3.72222222222
2019-01-06T00:21:45.339Z,3.72222222222
2019-01-06T00:21:57.666Z,3.72222222222
2019-01-06T00:22:10.009Z,3.72222222222
2019-01-06T00:22:22.575Z,3.72222222222
2019-01-06T00:22:34.921Z,3.72222222222
2019-01-06T00:22:47.285Z,3.72222222222
2019-01-06T00:22:59.634Z,3.72222222222
2019-01-06T00:23:12.133Z,3.72222222222
2019-01-06T00:23:24.507Z,3.72222222222
2019-01-06T00:23:36.863Z,3.72222222222
2019-01-06T00:23:49.197Z,3.72222222222
2019-01-06T00:24:01.551Z,3.72222222222
2019-01-06T00:24:14.003Z,3.72222222222
2019-01-06T00:24:26.370Z,3.72222222222
2019-01-06T00:24:38.709Z,3.66666666667
2019-01-06T00:24:51.053Z,3.66666666667
2019-01-06T00:25:03.414Z,3.72222222222
2019-01-06T00:25:15.771Z,3.72222222222
2019-01-06T00:25:28.129Z,3.72222222222
2019-01-06T00:25:40.469Z,3.66666666667
2019-01-06T00:25:52.824Z,3.66666666667
2019-01-06T00:26:05.303Z,3.72222222222
2019-01-06T00:26:17.644Z,3.72222222222
2019-01-06T00:26:30.007Z,3.66666666667
2019-01-06T00:26:42.349Z,3.72222222222
2019-01-06T00:26:54.757Z,3.72222222222
2019-01-06T00:27:07.093Z,3.66666666667
2019-01-06T00:27:19.570Z,3.66666666667
2019-01-06T00:27:31.914Z,3.66666666667
2019-01-06T00:27:44.253Z,3.66666666667
2019-01-06T00:27:56.578Z,3.66666666667
2019-01-06T00:28:09.033Z,3.66666666667
2019-01-06T00:28:21.385Z,3.66666666667
2019-01-06T00:28:33.752Z,3.66666666667
2019-01-06T00:28:46.095Z,3.72222222222
2019-01-06T00:28:58.441Z,3.66666666667
2019-01-06T00:29:10.798Z,3.66666666667
2019-01-06T00:29:23.158Z,3.66666666667
2019-01-06T00:29:35.533Z,3.66666666667
2019-01-06T00:29:47.979Z,3.66666666667
2019-01-06T00:30:00.414Z,3.66666666667
2019-01-06T00:30:14.692Z,3.66666666667
2019-01-06T00:30:27.174Z,3.66666666667
2019-01-06T00:30:39.518Z,3.66666666667
2019-01-06T00:30:51.876Z,3.66666666667
2019-01-06T00:31:04.224Z,3.66666666667
2019-01-06T00:31:16.577Z,3.66666666667
2019-01-06T00:31:28.911Z,3.66666666667
2019-01-06T00:31:41.255Z,3.66666666667
2019-01-06T00:31:53.672Z,3.66666666667
2019-01-06T00:32:06.054Z,3.66666666667
2019-01-06T00:32:18.501Z,3.66666666667
2019-01-06T00:32:30.838Z,3.66666666667
2019-01-06T00:32:43.197Z,3.66666666667
2019-01-06T00:32:55.539Z,3.61111111111
2019-01-06T00:33:08.033Z,3.61111111111
2019-01-06T00:33:20.395Z,3.61111111111
2019-01-06T00:33:32.760Z,3.61111111111
2019-01-06T00:33:45.117Z,3.61111111111
2019-01-06T00:33:57.463Z,3.61111111111
2019-01-06T00:34:09.816Z,3.61111111111
2019-01-06T00:34:22.463Z,3.61111111111
2019-01-06T00:34:34.853Z,3.55555555556
2019-01-06T00:34:47.193Z,3.55555555556
2019-01-06T00:34:59.568Z,3.55555555556
2019-01-06T00:35:11.957Z,3.55555555556
2019-01-06T00:35:24.291Z,3.55555555556
2019-01-06T00:35:36.657Z,3.55555555556
2019-01-06T00:35:49.296Z,3.55555555556
2019-01-06T00:36:01.642Z,3.55555555556
2019-01-06T00:36:13.979Z,3.55555555556
2019-01-06T00:36:26.463Z,3.55555555556
2019-01-06T00:36:38.832Z,3.55555555556
2019-01-06T00:36:51.211Z,3.55555555556
2019-01-06T00:37:03.534Z,3.5
2019-01-06T00:37:16.053Z,3.55555555556
2019-01-06T00:37:28.394Z,3.5
2019-01-06T00:37:40.739Z,3.5
2019-01-06T00:37:53.089Z,3.5
2019-01-06T00:38:05.446Z,3.5
2019-01-06T00:38:17.890Z,3.5
2019-01-06T00:38:30.232Z,3.5
2019-01-06T00:38:42.576Z,3.5
2019-01-06T00:38:55.321Z,3.5
2019-01-06T00:39:07.653Z,3.5
2019-01-06T00:39:20.006Z,3.44444444444
2019-01-06T00:39:32.341Z,3.44444444444
2019-01-06T00:39:44.696Z,3.5
2019-01-06T00:39:57.044Z,3.44444444444
2019-01-06T00:40:09.388Z,3.44444444444
2019-01-06T00:40:21.851Z,3.44444444444
2019-01-06T00:40:34.194Z,3.44444444444
2019-01-06T00:40:46.536Z,3.44444444444
2019-01-06T00:40:58.870Z,3.44444444444
2019-01-06T00:41:11.365Z,3.44444444444
2019-01-06T00:41:23.740Z,3.44444444444
2019-01-06T00:41:36.143Z,3.44444444444
2019-01-06T00:41:48.471Z,3.44444444444
2019-01-06T00:42:00.837Z,3.44444444444
2019-01-06T00:42:13.176Z,3.44444444444
2019-01-06T00:42:25.515Z,3.44444444444
2019-01-06T00:42:37.984Z,3.38888888889
2019-01-06T00:42:50.323Z,3.44444444444
2019-01-06T00:43:02.670Z,3.38888888889
2019-01-06T00:43:15.005Z,3.38888888889
2019-01-06T00:43:27.346Z,3.38888888889
2019-01-06T00:43:39.678Z,3.38888888889
2019-01-06T00:43:52.015Z,3.38888888889
2019-01-06T00:44:04.390Z,3.44444444444
2019-01-06T00:44:16.720Z,3.38888888889
2019-01-06T00:44:29.089Z,3.38888888889
2019-01-06T00:44:41.435Z,3.33333333333
2019-01-06T00:44:53.903Z,3.38888888889
2019-01-06T00:45:06.249Z,3.38888888889
2019-01-06T00:45:18.595Z,3.38888888889
2019-01-06T00:45:30.948Z,3.38888888889
2019-01-06T00:45:43.280Z,3.38888888889
2019-01-06T00:45:55.622Z,3.33333333333
2019-01-06T00:46:08.015Z,3.33333333333
2019-01-06T00:46:20.353Z,3.33333333333
2019-01-06T00:46:32.699Z,3.33333333333
2019-01-06T00:46:45.031Z,3.33333333333
2019-01-06T00:46:57.462Z,3.33333333333
2019-01-06T00:47:09.793Z,3.33333333333
2019-01-06T00:47:22.120Z,3.33333333333
2019-01-06T00:47:34.471Z,3.33333333333
2019-01-06T00:47:46.798Z,3.33333333333
2019-01-06T00:47:59.217Z,3.33333333333
2019-01-06T00:48:11.558Z,3.33333333333
2019-01-06T00:48:23.888Z,3.27777777778
2019-01-06T00:48:36.228Z,3.27777777778
2019-01-06T00:48:48.560Z,3.27777777778
2019-01-06T00:49:00.927Z,3.27777777778
2019-01-06T00:49:13.291Z,3.27777777778
2019-01-06T00:49:25.642Z,3.27777777778
2019-01-06T00:49:37.976Z,3.27777777778
2019-01-06T00:49:50.335Z,3.22222222222
2019-01-06T00:50:02.692Z,3.22222222222
2019-01-06T00:50:15.210Z,3.22222222222
2019-01-06T00:50:27.572Z,3.22222222222
2019-01-06T00:50:39.914Z,3.22222222222
2019-01-06T00:50:52.241Z,3.16666666667
2019-01-06T00:51:04.609Z,3.16666666667
2019-01-06T00:51:16.943Z,3.16666666667
2019-01-06T00:51:29.280Z,3.11111111111
2019-01-06T00:51:41.635Z,3.11111111111
2019-01-06T00:51:53.973Z,3.11111111111
2019-01-06T00:52:06.381Z,3.11111111111
2019-01-06T00:52:18.725Z,3.11111111111
2019-01-06T00:52:31.101Z,3.11111111111
2019-01-06T00:52:43.426Z,3.11111111111
2019-01-06T00:52:56.031Z,3.11111111111
2019-01-06T00:53:08.401Z,3.05555555556
2019-01-06T00:53:20.734Z,3.05555555556
2019-01-06T00:53:33.105Z,3
2019-01-06T00:53:45.457Z,3
2019-01-06T00:53:57.790Z,2.94444444444
2019-01-06T00:54:10.146Z,2.94444444444
2019-01-06T00:54:22.480Z,2.94444444444
2019-01-06T00:54:34.818Z,2.94444444444
2019-01-06T00:54:47.163Z,2.94444444444
2019-01-06T00:54:59.516Z,2.88888888889
2019-01-06T00:55:11.921Z,2.88888888889
2019-01-06T00:55:24.289Z,2.83333333333
2019-01-06T00:55:36.790Z,2.88888888889
2019-01-06T00:55:49.128Z,2.83333333333
2019-01-06T00:56:01.454Z,2.83333333333
2019-01-06T00:56:13.798Z,2.83333333333
2019-01-06T00:56:26.150Z,2.83333333333
2019-01-06T00:56:38.558Z,2.83333333333
2019-01-06T00:56:50.966Z,2.83333333333
2019-01-06T00:57:03.407Z,2.83333333333
2019-01-06T00:57:15.755Z,2.77777777778
2019-01-06T00:57:28.100Z,2.77777777778
2019-01-06T00:57:40.461Z,2.77777777778
2019-01-06T00:57:52.807Z,2.77777777778
2019-01-06T00:58:05.144Z,2.77777777778
2019-01-06T00:58:17.485Z,2.77777777778
2019-01-06T00:58:29.833Z,2.77777777778
2019-01-06T00:58:42.167Z,2.77777777778
2019-01-06T00:58:54.511Z,2.77777777778
2019-01-06T00:59:06.848Z,2.72222222222
2019-01-06T00:59:19.191Z,2.72222222222
2019-01-06T00:59:31.571Z,2.72222222222
2019-01-06T00:59:43.930Z,2.66666666667
2019-01-06T00:59:56.288Z,2.66666666667
2019-01-06T01:00:08.652Z,2.72222222222
2019-01-06T01:00:21.025Z,2.72222222222
2019-01-06T01:00:33.393Z,2.66666666667
2019-01-06T01:00:45.776Z,2.66666666667
2019-01-06T01:00:58.137Z,2.66666666667
2019-01-06T01:01:10.498Z,2.66666666667
2019-01-06T01:01:22.877Z,2.66666666667
2019-01-06T01:01:35.233Z,2.66666666667
2019-01-06T01:01:47.601Z,2.66666666667
2019-01-06T01:01:59.956Z,2.66666666667
2019-01-06T01:02:12.546Z,2.66666666667
2019-01-06T01:02:24.891Z,2.66666666667
2019-01-06T01:02:38.530Z,2.66666666667
2019-01-06T01:02:51.025Z,2.61111111111
2019-01-06T01:03:03.390Z,2.66666666667
2019-01-06T01:03:15.752Z,2.66666666667
2019-01-06T01:03:28.105Z,2.66666666667
2019-01-06T01:03:40.467Z,2.66666666667
2019-01-06T01:03:52.822Z,2.66666666667
2019-01-06T01:04:05.160Z,2.66666666667
2019-01-06T01:04:17.500Z,2.66666666667
2019-01-06T01:04:29.890Z,2.61111111111
2019-01-06T01:04:42.261Z,2.66666666667
2019-01-06T01:04:54.650Z,2.66666666667
2019-01-06T01:05:07.015Z,2.66666666667
2019-01-06T01:05:19.373Z,2.66666666667
2019-01-06T01:05:31.723Z,2.66666666667
2019-01-06T01:05:44.055Z,2.66666666667
2019-01-06T01:05:56.570Z,2.66666666667
2019-01-06T01:06:08.917Z,2.61111111111
2019-01-06T01:06:21.258Z,2.61111111111
2019-01-06T01:06:33.614Z,2.61111111111
2019-01-06T01:06:45.946Z,2.61111111111
2019-01-06T01:06:58.374Z,2.66666666667
2019-01-06T01:07:10.859Z,2.61111111111
2019-01-06T01:07:23.270Z,2.61111111111
2019-01-06T01:07:35.643Z,2.61111111111
2019-01-06T01:07:48.007Z,2.61111111111
2019-01-06T01:08:00.362Z,2.61111111111
2019-01-06T01:08:12.705Z,2.61111111111
2019-01-06T01:08:25.050Z,2.61111111111
2019-01-06T01:08:37.426Z,2.61111111111
2019-01-06T01:08:49.874Z,2.61111111111
2019-01-06T01:09:02.379Z,2.61111111111
2019-01-06T01:09:14.732Z,2.66666666667
2019-01-06T01:09:27.087Z,2.61111111111
2019-01-06T01:09:40.493Z,2.61111111111
2019-01-06T01:09:52.846Z,2.61111111111
2019-01-06T01:10:05.203Z,2.66666666667
2019-01-06T01:10:17.556Z,2.61111111111
2019-01-06T01:10:29.975Z,2.61111111111
2019-01-06T01:10:42.355Z,2.61111111111
2019-01-06T01:10:54.708Z,2.61111111111
2019-01-06T01:11:07.054Z,2.61111111111
2019-01-06T01:11:19.395Z,2.61111111111
2019-01-06T01:11:31.734Z,2.61111111111
2019-01-06T01:11:44.079Z,2.61111111111
2019-01-06T01:11:56.818Z,2.61111111111
2019-01-06T01:12:09.158Z,2.61111111111
2019-01-06T01:12:21.511Z,2.61111111111
2019-01-06T01:12:33.856Z,2.61111111111
2019-01-06T01:12:46.214Z,2.61111111111
2019-01-06T01:12:58.624Z,2.61111111111
2019-01-06T01:13:11.002Z,2.61111111111
2019-01-06T01:13:23.354Z,2.61111111111
2019-01-06T01:13:35.680Z,2.61111111111
2019-01-06T01:13:48.049Z,2.61111111111
2019-01-06T01:14:00.389Z,2.61111111111
2019-01-06T01:14:12.763Z,2.61111111111
2019-01-06T01:14:25.110Z,2.61111111111
2019-01-06T01:14:37.476Z,2.61111111111
2019-01-06T01:14:49.899Z,2.61111111111
2019-01-06T01:15:02.272Z,2.61111111111
2019-01-06T01:15:14.725Z,2.61111111111
2019-01-06T01:15:27.061Z,2.61111111111
2019-01-06T01:15:39.403Z,2.61111111111
2019-01-06T01:15:51.840Z,2.55555555556
2019-01-06T01:16:04.182Z,2.61111111111
2019-01-06T01:16:16.535Z,2.61111111111
2019-01-06T01:16:28.943Z,2.61111111111
2019-01-06T01:16:41.282Z,2.61111111111
2019-01-06T01:16:53.653Z,2.61111111111
2019-01-06T01:17:06.001Z,2.61111111111
2019-01-06T01:17:18.337Z,2.61111111111
2019-01-06T01:17:30.674Z,2.66666666667
2019-01-06T01:17:43.099Z,2.61111111111
2019-01-06T01:17:55.633Z,2.66666666667
2019-01-06T01:18:07.983Z,2.66666666667
2019-01-06T01:18:20.344Z,2.61111111111
2019-01-06T01:18:32.682Z,2.61111111111
2019-01-06T01:18:45.237Z,2.61111111111
2019-01-06T01:18:57.583Z,2.61111111111
2019-01-06T01:19:09.924Z,2.61111111111
2019-01-06T01:19:22.304Z,2.61111111111
2019-01-06T01:19:34.650Z,2.61111111111
2019-01-06T01:19:48.600Z,2.61111111111
2019-01-06T01:20:00.949Z,2.66666666667
2019-01-06T01:20:13.338Z,2.61111111111
2019-01-06T01:20:25.718Z,2.61111111111
2019-01-06T01:20:38.071Z,2.61111111111
2019-01-06T01:20:50.467Z,2.66666666667
2019-01-06T01:21:02.821Z,2.61111111111
2019-01-06T01:21:15.172Z,2.66666666667
2019-01-06T01:21:27.588Z,2.61111111111
2019-01-06T01:21:39.954Z,2.61111111111
2019-01-06T01:21:52.310Z,2.61111111111
2019-01-06T01:22:04.665Z,2.61111111111
2019-01-06T01:22:17.011Z,2.61111111111
2019-01-06T01:22:29.370Z,2.61111111111
2019-01-06T01:22:41.744Z,2.66666666667
2019-01-06T01:22:54.099Z,2.61111111111
2019-01-06T01:23:06.612Z,2.61111111111
2019-01-06T01:23:18.949Z,2.61111111111
2019-01-06T01:23:31.279Z,2.61111111111
2019-01-06T01:23:43.640Z,2.61111111111
2019-01-06T01:23:55.979Z,2.61111111111
2019-01-06T01:24:08.316Z,2.61111111111
2019-01-06T01:24:21.210Z,2.61111111111
2019-01-06T01:24:33.580Z,2.61111111111
2019-01-06T01:24:45.950Z,2.61111111111
2019-01-06T01:25:00.325Z,2.61111111111
2019-01-06T01:25:12.666Z,2.61111111111
2019-01-06T01:25:25.156Z,2.61111111111
2019-01-06T01:25:37.524Z,2.61111111111
2019-01-06T01:25:49.872Z,2.61111111111
2019-01-06T01:26:02.222Z,2.61111111111
2019-01-06T01:26:14.717Z,2.61111111111
2019-01-06T01:26:27.057Z,2.61111111111
2019-01-06T01:26:39.486Z,2.61111111111
2019-01-06T01:26:59.572Z,2.61111111111
2019-01-06T01:27:12.005Z,2.61111111111
2019-01-06T01:27:24.417Z,2.61111111111
2019-01-06T01:27:36.763Z,2.66666666667
2019-01-06T01:27:49.126Z,2.61111111111
2019-01-06T01:28:01.462Z,2.61111111111
2019-01-06T01:28:13.894Z,2.66666666667
2019-01-06T01:28:26.281Z,2.61111111111
2019-01-06T01:28:38.624Z,2.66666666667
2019-01-06T01:28:50.984Z,2.61111111111
2019-01-06T01:29:03.350Z,2.61111111111
2019-01-06T01:29:15.690Z,2.66666666667
2019-01-06T01:29:28.060Z,2.66666666667
2019-01-06T01:29:40.385Z,2.66666666667
2019-01-06T01:29:52.716Z,2.61111111111
2019-01-06T01:30:05.071Z,2.61111111111
2019-01-06T01:30:17.589Z,2.66666666667
2019-01-06T01:30:30.065Z,2.66666666667
2019-01-06T01:30:42.441Z,2.66666666667
2019-01-06T01:30:54.807Z,2.66666666667
2019-01-06T01:31:07.152Z,2.66666666667
2019-01-06T01:31:19.490Z,2.66666666667
2019-01-06T01:31:31.844Z,2.66666666667
2019-01-06T01:31:44.210Z,2.61111111111
2019-01-06T01:31:56.551Z,2.66666666667
2019-01-06T01:32:08.988Z,2.61111111111
2019-01-06T01:32:21.349Z,2.61111111111
2019-01-06T01:32:33.714Z,2.66666666667
2019-01-06T01:32:46.078Z,2.61111111111
2019-01-06T01:32:58.467Z,2.66666666667
2019-01-06T01:33:10.978Z,2.61111111111
2019-01-06T01:33:23.331Z,2.61111111111
2019-01-06T01:33:35.658Z,2.61111111111
2019-01-06T01:33:47.995Z,2.66666666667
2019-01-06T01:34:00.337Z,2.66666666667
2019-01-06T01:34:12.806Z,2.66666666667
2019-01-06T01:34:25.283Z,2.66666666667
2019-01-06T01:34:37.627Z,2.66666666667
2019-01-06T01:34:49.982Z,2.66666666667
2019-01-06T01:35:03.575Z,2.66666666667
2019-01-06T01:35:15.918Z,2.66666666667
2019-01-06T01:35:28.272Z,2.66666666667
2019-01-06T01:35:41.532Z,2.66666666667
2019-01-06T01:35:53.881Z,2.66666666667
2019-01-06T01:36:06.225Z,2.66666666667
2019-01-06T01:36:18.562Z,2.66666666667
2019-01-06T01:36:30.906Z,2.66666666667
2019-01-06T01:36:43.256Z,2.66666666667
2019-01-06T01:36:55.586Z,2.66666666667
2019-01-06T01:37:07.936Z,2.66666666667
2019-01-06T01:37:20.397Z,2.66666666667
2019-01-06T01:37:32.809Z,2.66666666667
2019-01-06T01:37:45.150Z,2.66666666667
2019-01-06T01:37:57.641Z,2.66666666667
2019-01-06T01:38:09.982Z,2.66666666667
2019-01-06T01:38:22.306Z,2.66666666667
2019-01-06T01:38:34.659Z,2.61111111111
2019-01-06T01:38:47.015Z,2.66666666667
2019-01-06T01:38:59.485Z,2.66666666667
2019-01-06T01:39:11.837Z,2.61111111111
2019-01-06T01:39:24.161Z,2.61111111111
2019-01-06T01:39:36.492Z,2.66666666667
2019-01-06T01:39:48.836Z,2.66666666667
2019-01-06T01:40:01.391Z,2.61111111111
2019-01-06T01:40:13.742Z,2.66666666667
2019-01-06T01:40:26.461Z,2.66666666667
2019-01-06T01:40:38.832Z,2.61111111111
2019-01-06T01:40:51.162Z,2.61111111111
2019-01-06T01:41:03.614Z,2.61111111111
2019-01-06T01:41:16.090Z,2.66666666667
2019-01-06T01:41:28.499Z,2.61111111111
2019-01-06T01:41:40.851Z,2.61111111111
2019-01-06T01:41:53.187Z,2.66666666667
2019-01-06T01:42:05.561Z,2.66666666667
2019-01-06T01:42:17.906Z,2.66666666667
2019-01-06T01:42:30.293Z,2.66666666667
2019-01-06T01:42:42.634Z,2.66666666667
2019-01-06T01:42:54.990Z,2.61111111111
2019-01-06T01:43:08.628Z,2.61111111111
2019-01-06T01:43:21.007Z,2.61111111111
2019-01-06T01:43:33.354Z,2.61111111111
2019-01-06T01:43:45.707Z,2.66666666667
2019-01-06T01:43:58.055Z,2.61111111111
2019-01-06T01:44:10.393Z,2.61111111111
2019-01-06T01:44:22.736Z,2.61111111111
2019-01-06T01:44:35.084Z,2.61111111111
2019-01-06T01:44:47.624Z,2.61111111111
2019-01-06T01:44:59.970Z,2.61111111111
2019-01-06T01:45:12.320Z,2.66666666667
2019-01-06T01:45:24.705Z,2.61111111111
2019-01-06T01:45:37.058Z,2.61111111111
2019-01-06T01:45:49.410Z,2.61111111111
2019-01-06T01:46:01.841Z,2.61111111111
2019-01-06T01:46:14.183Z,2.66666666667
2019-01-06T01:46:26.551Z,2.66666666667
2019-01-06T01:46:38.897Z,2.61111111111
2019-01-06T01:46:51.258Z,2.61111111111
2019-01-06T01:47:03.606Z,2.61111111111
2019-01-06T01:47:15.954Z,2.61111111111
2019-01-06T01:47:28.406Z,2.61111111111
2019-01-06T01:47:40.747Z,2.61111111111
2019-01-06T01:47:53.117Z,2.61111111111
2019-01-06T01:48:05.458Z,2.61111111111
2019-01-06T01:48:17.802Z,2.61111111111
2019-01-06T01:48:30.136Z,2.61111111111
2019-01-06T01:48:42.554Z,2.61111111111
2019-01-06T01:48:54.891Z,2.61111111111
2019-01-06T01:49:07.227Z,2.61111111111
2019-01-06T01:49:19.579Z,2.61111111111
2019-01-06T01:49:31.904Z,2.61111111111
2019-01-06T01:49:44.240Z,2.61111111111
2019-01-06T01:49:56.663Z,2.61111111111
2019-01-06T01:50:09.009Z,2.61111111111
2019-01-06T01:50:21.444Z,2.66666666667
2019-01-06T01:50:33.947Z,2.61111111111
2019-01-06T01:50:46.313Z,2.61111111111
2019-01-06T01:50:58.664Z,2.61111111111
2019-01-06T01:51:11.024Z,2.61111111111
2019-01-06T01:51:23.362Z,2.55555555556
2019-01-06T01:51:35.692Z,2.61111111111
2019-01-06T01:51:48.036Z,2.61111111111
2019-01-06T01:52:00.389Z,2.61111111111
2019-01-06T01:52:12.805Z,2.61111111111
2019-01-06T01:52:25.157Z,2.61111111111
2019-01-06T01:52:37.516Z,2.61111111111
2019-01-06T01:52:49.900Z,2.61111111111
2019-01-06T01:53:02.314Z,2.61111111111
2019-01-06T01:53:14.674Z,2.55555555556
2019-01-06T01:53:27.024Z,2.55555555556
2019-01-06T01:53:39.364Z,2.61111111111
2019-01-06T01:53:51.708Z,2.61111111111
2019-01-06T01:54:04.067Z,2.61111111111
2019-01-06T01:54:16.400Z,2.61111111111
2019-01-06T01:54:28.837Z,2.61111111111
2019-01-06T01:54:41.311Z,2.55555555556
2019-01-06T01:54:53.686Z,2.61111111111
2019-01-06T01:55:06.033Z,2.61111111111
2019-01-06T01:55:18.443Z,2.55555555556
2019-01-06T01:55:30.885Z,2.55555555556
2019-01-06T01:55:43.227Z,2.55555555556
2019-01-06T01:55:55.585Z,2.55555555556
2019-01-06T01:56:07.928Z,2.55555555556
2019-01-06T01:56:20.270Z,2.55555555556
2019-01-06T01:56:32.603Z,2.61111111111
2019-01-06T01:56:44.942Z,2.55555555556
2019-01-06T01:56:57.302Z,2.55555555556
2019-01-06T01:57:09.632Z,2.55555555556
2019-01-06T01:57:21.957Z,2.61111111111
2019-01-06T01:57:34.305Z,2.55555555556
2019-01-06T01:57:46.662Z,2.55555555556
2019-01-06T01:57:58.995Z,2.55555555556
2019-01-06T01:58:11.444Z,2.55555555556
2019-01-06T01:58:23.797Z,2.61111111111
2019-01-06T01:58:36.189Z,2.55555555556
2019-01-06T01:58:48.525Z,2.61111111111
2019-01-06T01:59:01.287Z,2.55555555556
2019-01-06T01:59:13.647Z,2.55555555556
2019-01-06T01:59:26.011Z,2.55555555556
2019-01-06T01:59:38.365Z,2.55555555556
2019-01-06T01:59:50.695Z,2.55555555556
2019-01-06T02:00:03.120Z,2.55555555556
2019-01-06T02:00:15.484Z,2.55555555556
2019-01-06T02:00:28.009Z,2.55555555556
2019-01-06T02:00:40.393Z,2.55555555556
2019-01-06T02:00:52.773Z,2.55555555556
2019-01-06T02:01:05.143Z,2.55555555556
2019-01-06T02:01:17.555Z,2.55555555556
2019-01-06T02:01:29.973Z,2.55555555556
2019-01-06T02:01:42.312Z,2.55555555556
2019-01-06T02:01:54.899Z,2.55555555556
2019-01-06T02:02:07.412Z,2.55555555556
2019-01-06T02:02:19.759Z,2.55555555556
2019-01-06T02:02:32.102Z,2.55555555556
2019-01-06T02:02:44.463Z,2.55555555556
2019-01-06T02:02:56.815Z,2.55555555556
2019-01-06T02:03:09.157Z,2.55555555556
2019-01-06T02:03:21.516Z,2.55555555556
2019-01-06T02:03:33.944Z,2.55555555556
2019-01-06T02:03:46.295Z,2.55555555556
2019-01-06T02:03:58.636Z,2.55555555556
2019-01-06T02:04:10.999Z,2.55555555556
2019-01-06T02:04:23.445Z,2.55555555556
2019-01-06T02:04:35.779Z,2.55555555556
2019-01-06T02:04:48.117Z,2.55555555556
2019-01-06T02:05:00.482Z,2.55555555556
2019-01-06T02:05:12.902Z,2.55555555556
2019-01-06T02:05:25.314Z,2.55555555556
2019-01-06T02:05:37.661Z,2.55555555556
2019-01-06T02:05:49.995Z,2.55555555556
2019-01-06T02:06:02.629Z,2.55555555556
2019-01-06T02:06:15.003Z,2.55555555556
2019-01-06T02:06:27.386Z,2.55555555556
2019-01-06T02:06:39.728Z,2.55555555556
2019-01-06T02:06:52.073Z,2.55555555556
2019-01-06T02:07:04.429Z,2.55555555556
2019-01-06T02:07:16.775Z,2.55555555556
2019-01-06T02:07:29.120Z,2.55555555556
2019-01-06T02:07:41.536Z,2.55555555556